Time;durP1;ratioP1;P1;durP2;ratioP2;P2;SDS_P1;SDS_P2;PMS_P1;PMS_P2;Temp;Humidity;BMP_temperature;BMP_pressure;BME280_temperature;BME280_humidity;BME280_pressure;Samples;Min_cycle;Max_cycle;Signal;HPM_P1;HPM_P2
2022/02/18 00:00:36;;;;;;;11.57;7.47;;;;;;;9.23;55.75;94318.41;4927254;29;20043;-80
2022/02/18 00:03:02;;;;;;;9.57;6.68;;;;;;;9.31;55.83;94320.63;4943276;29;20554;-80
2022/02/18 00:05:27;;;;;;;13.05;7.45;;;;;;;9.42;55.94;94317.16;4952652;29;20031;-80
2022/02/18 00:07:53;;;;;;;14.73;8.00;;;;;;;9.50;55.61;94328.97;4940142;29;20035;-80
2022/02/18 00:10:18;;;;;;;13.98;8.40;;;;;;;9.59;55.40;94323.13;4954487;29;20118;-80
2022/02/18 00:12:45;;;;;;;16.40;7.82;;;;;;;9.71;54.77;94323.03;4945821;29;20260;-80
2022/02/18 00:15:11;;;;;;;15.60;9.02;;;;;;;9.80;55.10;94323.44;4945358;29;20041;-81
2022/02/18 00:17:38;;;;;;;28.60;8.93;;;;;;;9.90;54.46;94323.56;4938038;29;20122;-80
2022/02/18 00:20:05;;;;;;;15.98;9.88;;;;;;;10.00;54.47;94318.50;4936541;29;20027;-80
2022/02/18 00:22:30;;;;;;;20.05;8.05;;;;;;;10.07;53.85;94326.91;4950022;29;20067;-80
2022/02/18 00:24:55;;;;;;;16.08;7.53;;;;;;;10.12;53.33;94326.22;4943131;29;20094;-80
2022/02/18 00:27:21;;;;;;;15.25;6.30;;;;;;;10.17;52.87;94324.44;4952928;29;20042;-79
2022/02/18 00:29:46;;;;;;;11.60;6.32;;;;;;;10.22;52.84;94314.13;4955586;29;20035;-79
2022/02/18 00:32:12;;;;;;;13.07;6.68;;;;;;;10.26;52.10;94313.69;4943630;29;20042;-79
2022/02/18 00:34:38;;;;;;;18.20;7.50;;;;;;;10.27;52.18;94281.47;4953786;29;20404;-79
2022/02/18 00:37:04;;;;;;;18.35;9.10;;;;;;;10.42;51.22;94273.84;4918994;29;20293;-79
2022/02/18 00:39:30;;;;;;;13.60;7.15;;;;;;;10.45;51.09;94304.56;4955880;29;20055;-79
2022/02/18 00:41:55;;;;;;;23.75;11.15;;;;;;;10.51;50.44;94319.16;4960387;29;20040;-81
2022/02/18 00:44:21;;;;;;;15.82;6.68;;;;;;;10.54;50.10;94313.47;4949847;29;20040;-79
2022/02/18 00:46:46;;;;;;;10.45;6.30;;;;;;;10.61;49.83;94319.28;4948823;29;20038;-81
2022/02/18 00:49:11;;;;;;;12.52;6.97;;;;;;;10.62;49.09;94310.47;4952731;29;20032;-79
2022/02/18 00:51:37;;;;;;;10.13;6.38;;;;;;;10.70;49.30;94310.00;4936703;29;20024;-79
2022/02/18 00:54:02;;;;;;;13.60;6.13;;;;;;;10.73;48.96;94317.31;4938854;29;20046;-80
2022/02/18 00:56:28;;;;;;;10.80;5.30;;;;;;;10.78;48.85;94340.78;4953682;29;20055;-80
2022/02/18 00:58:53;;;;;;;5.45;4.28;;;;;;;10.72;48.29;94338.38;4934336;29;20038;-85
2022/02/18 01:01:19;;;;;;;6.20;4.53;;;;;;;10.73;48.80;94343.31;4951149;29;20035;-79
2022/02/18 01:03:44;;;;;;;5.80;4.47;;;;;;;10.73;48.62;94356.31;4952150;29;20039;-79
2022/02/18 01:06:10;;;;;;;7.93;5.10;;;;;;;10.69;48.39;94342.25;4953271;29;20401;-79
2022/02/18 01:08:35;;;;;;;6.68;5.03;;;;;;;10.71;48.82;94360.19;4956170;29;20023;-80
2022/02/18 01:11:01;;;;;;;4.90;4.40;;;;;;;10.72;48.67;94378.16;4953852;28;20099;-80
2022/02/18 01:13:28;;;;;;;9.32;5.45;;;;;;;10.70;48.20;94369.03;4950505;29;20090;-80
2022/02/18 01:15:54;;;;;;;8.35;4.97;;;;;;;10.68;48.76;94377.06;4950838;29;20047;-81
2022/02/18 01:18:21;;;;;;;8.73;4.60;;;;;;;10.60;48.91;94356.72;4946931;29;20117;-80
2022/02/18 01:20:47;;;;;;;7.50;4.70;;;;;;;10.57;49.59;94369.41;4937594;29;20035;-80
2022/02/18 01:23:12;;;;;;;12.68;4.95;;;;;;;10.46;50.07;94364.09;4927552;29;20191;-79
2022/02/18 01:25:38;;;;;;;16.40;5.28;;;;;;;10.42;50.66;94377.81;4937337;29;20039;-79
2022/02/18 01:28:04;;;;;;;10.80;4.93;;;;;;;10.39;50.20;94378.28;4952688;29;20090;-80
2022/02/18 01:30:30;;;;;;;6.95;5.45;;;;;;;10.32;50.39;94382.88;4936121;29;20043;-80
2022/02/18 01:32:55;;;;;;;11.00;7.07;;;;;;;10.07;50.84;94394.44;4952873;29;20086;-82
2022/02/18 01:35:21;;;;;;;12.43;6.68;;;;;;;9.72;51.75;94407.69;4942189;29;20035;-79
2022/02/18 01:37:48;;;;;;;12.70;6.75;;;;;;;9.65;52.04;94414.06;4953465;29;20039;-80
2022/02/18 01:40:14;;;;;;;12.75;6.75;;;;;;;9.44;51.99;94423.34;4950963;29;20098;-80
2022/02/18 01:42:41;;;;;;;17.83;7.03;;;;;;;9.37;52.15;94433.84;4951576;29;20620;-80
2022/02/18 01:45:07;;;;;;;19.83;7.38;;;;;;;9.29;51.89;94447.22;4937221;29;20459;-79
2022/02/18 01:47:32;;;;;;;11.77;7.03;;;;;;;9.25;52.06;94446.06;4936635;29;20111;-81
2022/02/18 01:49:58;;;;;;;14.45;6.72;;;;;;;9.14;53.31;94455.50;4938421;29;20115;-80
2022/02/18 01:52:28;;;;;;;12.15;7.43;;;;;;;9.12;53.14;94454.94;4934945;29;20924;-80
2022/02/18 01:54:54;;;;;;;8.82;6.75;;;;;;;9.09;53.33;94463.16;4949050;29;20044;-80
2022/02/18 01:57:20;;;;;;;15.20;6.88;;;;;;;9.02;53.43;94446.97;4933736;29;20027;-80
2022/02/18 01:59:45;;;;;;;9.05;6.15;;;;;;;9.03;53.64;94454.50;4950094;29;20031;-80
2022/02/18 02:02:11;;;;;;;10.25;6.65;;;;;;;9.15;53.32;94461.47;4946297;29;20035;-79
2022/02/18 02:04:36;;;;;;;9.45;6.53;;;;;;;9.22;53.10;94462.13;4951365;29;20037;-79
2022/02/18 02:07:03;;;;;;;14.52;5.80;;;;;;;9.37;52.33;94462.38;4947335;29;20031;-79
2022/02/18 02:09:29;;;;;;;13.82;5.90;;;;;;;9.48;51.81;94458.97;4949160;29;20035;-81
2022/02/18 02:11:54;;;;;;;11.15;5.85;;;;;;;9.57;51.71;94467.16;4948661;29;20079;-79
2022/02/18 02:14:20;;;;;;;9.00;5.13;;;;;;;9.60;51.35;94459.69;4938820;29;20074;-80
2022/02/18 02:16:45;;;;;;;8.02;5.93;;;;;;;9.70;50.36;94463.47;4950937;29;20040;-81
2022/02/18 02:19:11;;;;;;;8.48;5.60;;;;;;;9.79;49.62;94462.09;4935598;29;20032;-80
2022/02/18 02:21:37;;;;;;;9.80;4.63;;;;;;;9.83;49.83;94461.38;4949384;29;20040;-81
2022/02/18 02:24:02;;;;;;;12.25;5.70;;;;;;;9.86;49.54;94468.69;4945989;29;20031;-81
2022/02/18 02:26:28;;;;;;;11.55;7.45;;;;;;;9.87;49.12;94485.06;4940311;29;20638;-80
2022/02/18 02:28:54;;;;;;;11.32;6.40;;;;;;;9.83;49.64;94483.94;4930967;29;20031;-80
2022/02/18 02:31:24;;;;;;;7.85;5.25;;;;;;;9.79;50.13;94488.03;4942318;29;20050;-80
2022/02/18 02:33:49;;;;;;;13.02;5.95;;;;;;;9.80;49.52;94489.63;4933825;29;20027;-80
2022/02/18 02:36:14;;;;;;;7.53;5.40;;;;;;;9.84;49.17;94488.13;4949208;29;20031;-80
2022/02/18 02:38:40;;;;;;;8.73;5.82;;;;;;;9.76;50.42;94494.50;4950765;29;20045;-80
2022/02/18 02:41:06;;;;;;;10.15;5.55;;;;;;;9.82;50.29;94516.13;4938091;29;20534;-82
2022/02/18 02:43:31;;;;;;;11.90;6.45;;;;;;;9.83;49.83;94525.50;4943018;29;20094;-79
2022/02/18 02:45:57;;;;;;;11.77;7.43;;;;;;;9.79;50.26;94521.81;4957479;29;20093;-79
2022/02/18 02:48:22;;;;;;;10.50;5.78;;;;;;;9.77;50.82;94536.84;4939872;29;20040;-81
2022/02/18 02:50:48;;;;;;;13.73;6.55;;;;;;;9.65;51.31;94543.88;4937192;29;20459;-80
2022/02/18 02:53:13;;;;;;;8.88;5.68;;;;;;;9.57;51.73;94547.63;4925296;29;20031;-81
2022/02/18 02:55:39;;;;;;;10.18;5.45;;;;;;;9.51;52.85;94564.13;4933990;29;20047;-81
2022/02/18 02:58:05;;;;;;;5.95;4.97;;;;;;;9.42;52.74;94566.28;4935746;29;20570;-81
2022/02/18 03:00:30;;;;;;;12.60;4.50;;;;;;;9.41;53.62;94574.28;4937055;29;20035;-81
2022/02/18 03:02:56;;;;;;;9.90;5.93;;;;;;;9.23;55.05;94580.44;4934203;29;20043;-81
2022/02/18 03:05:22;;;;;;;12.68;5.97;;;;;;;9.12;56.45;94589.03;4933600;29;20035;-80
2022/02/18 03:07:47;;;;;;;13.57;5.95;;;;;;;9.01;56.88;94601.00;4935563;29;20035;-80
2022/02/18 03:10:13;;;;;;;8.68;5.15;;;;;;;8.91;58.35;94606.75;4945397;29;20044;-80
2022/02/18 03:12:39;;;;;;;9.68;6.25;;;;;;;8.80;59.53;94630.09;4951888;29;20039;-80
2022/02/18 03:15:05;;;;;;;10.27;5.38;;;;;;;8.73;60.71;94640.56;4953099;29;20047;-81
2022/02/18 03:17:30;;;;;;;12.68;5.60;;;;;;;8.68;61.82;94658.59;4936466;29;20035;-80
2022/02/18 03:19:56;;;;;;;10.20;5.28;;;;;;;8.58;62.69;94666.91;4946249;29;20062;-80
2022/02/18 03:22:21;;;;;;;11.10;5.25;;;;;;;8.47;63.56;94672.06;4947942;29;20039;-81
2022/02/18 03:24:47;;;;;;;9.18;5.50;;;;;;;8.29;64.94;94671.06;4935080;29;20039;-81
2022/02/18 03:27:12;;;;;;;9.88;5.57;;;;;;;8.09;66.87;94679.09;4937851;29;20042;-80
2022/02/18 03:29:38;;;;;;;6.88;5.35;;;;;;;7.92;68.35;94687.69;4932108;29;20039;-80
2022/02/18 03:32:04;;;;;;;6.00;5.35;;;;;;;7.80;69.27;94691.00;4948470;29;20042;-80
2022/02/18 03:34:30;;;;;;;10.57;6.20;;;;;;;7.71;69.64;94692.31;4952892;29;20054;-80
2022/02/18 03:36:55;;;;;;;15.98;8.43;;;;;;;7.67;69.87;94719.66;4939032;29;20035;-80
2022/02/18 03:39:21;;;;;;;7.65;5.50;;;;;;;7.61;70.52;94732.66;4946754;29;20408;-80
2022/02/18 03:41:46;;;;;;;11.48;6.85;;;;;;;7.59;69.85;94735.44;4948205;29;20035;-80
2022/02/18 03:44:12;;;;;;;16.75;7.93;;;;;;;7.52;70.90;94724.38;4923600;29;20043;-80
2022/02/18 03:46:37;;;;;;;10.30;5.65;;;;;;;7.51;70.56;94730.56;4928651;29;20043;-80
2022/02/18 03:49:03;;;;;;;11.75;5.78;;;;;;;7.58;70.20;94730.50;4942021;29;20027;-80
2022/02/18 03:51:29;;;;;;;14.90;7.05;;;;;;;7.53;69.56;94728.56;4923766;29;20043;-80
2022/02/18 03:53:54;;;;;;;11.70;6.05;;;;;;;7.58;69.65;94740.84;4939468;29;20035;-80
2022/02/18 03:56:20;;;;;;;10.50;4.43;;;;;;;7.61;69.84;94741.19;4918046;29;20042;-80
2022/02/18 03:58:45;;;;;;;10.07;5.45;;;;;;;7.68;69.31;94749.69;4929640;29;20037;-80
2022/02/18 04:01:11;;;;;;;12.75;5.90;;;;;;;7.75;68.92;94753.00;4949212;29;20038;-80
2022/02/18 04:03:36;;;;;;;5.75;4.63;;;;;;;7.80;68.30;94760.91;4949382;29;20509;-80
2022/02/18 04:06:02;;;;;;;8.60;4.75;;;;;;;7.80;68.19;94766.06;4945439;29;20027;-80
2022/02/18 04:08:27;;;;;;;6.45;5.22;;;;;;;7.83;67.54;94765.66;4939609;29;20044;-79
2022/02/18 04:10:53;;;;;;;3.28;3.00;;;;;;;7.85;67.36;94782.78;4933083;29;20094;-80
2022/02/18 04:13:19;;;;;;;5.80;3.83;;;;;;;7.79;66.74;94782.63;4932285;29;20518;-79
2022/02/18 04:15:44;;;;;;;7.82;2.95;;;;;;;7.69;66.02;94795.28;4923995;29;20831;-80
2022/02/18 04:18:10;;;;;;;4.75;2.85;;;;;;;7.64;65.41;94784.75;4946480;29;20038;-80
2022/02/18 04:20:35;;;;;;;4.28;3.05;;;;;;;7.69;64.63;94808.22;4951280;28;20038;-80
2022/02/18 04:23:01;;;;;;;3.50;2.33;;;;;;;7.67;63.17;94794.72;4946804;29;20051;-79
2022/02/18 04:25:26;;;;;;;3.42;1.83;;;;;;;7.63;62.42;94790.16;4952813;29;20038;-78
2022/02/18 04:28:00;;;;;;;4.40;2.58;;;;;;;7.59;61.75;94789.78;4929500;29;20035;-80
2022/02/18 04:30:26;;;;;;;2.28;2.17;;;;;;;7.54;61.24;94787.06;4940818;29;20032;-80
2022/02/18 04:32:51;;;;;;;3.75;2.20;;;;;;;7.51;60.83;94777.16;4955214;29;20047;-80
2022/02/18 04:35:17;;;;;;;10.70;2.60;;;;;;;7.46;60.66;94772.59;4937217;29;20035;-80
2022/02/18 04:37:42;;;;;;;2.13;2.03;;;;;;;7.44;59.84;94776.41;4935181;29;20019;-79
2022/02/18 04:40:09;;;;;;;5.78;4.22;;;;;;;7.34;59.05;94786.44;4933510;29;20054;-81
2022/02/18 04:42:35;;;;;;;7.60;6.03;;;;;;;7.25;58.41;94777.34;4952925;29;20063;-80
2022/02/18 04:45:00;;;;;;;4.88;3.70;;;;;;;7.19;58.61;94773.84;4930015;29;20039;-80
2022/02/18 04:47:26;;;;;;;2.47;2.28;;;;;;;7.17;58.17;94776.63;4941260;29;20117;-80
2022/02/18 04:49:51;;;;;;;6.38;3.10;;;;;;;7.14;58.11;94781.41;4945494;29;20511;-80
2022/02/18 04:52:17;;;;;;;4.80;3.42;;;;;;;7.07;57.65;94776.31;4955467;29;20507;-80
2022/02/18 04:54:42;;;;;;;5.18;3.80;;;;;;;7.04;56.90;94786.28;4953649;29;20503;-80
2022/02/18 04:57:08;;;;;;;3.75;3.13;;;;;;;6.93;57.45;94779.97;4945797;29;20097;-80
2022/02/18 04:59:33;;;;;;;5.70;3.33;;;;;;;6.97;57.74;94788.91;4934524;29;20431;-80
2022/02/18 05:01:59;;;;;;;5.10;3.30;;;;;;;6.93;56.72;94796.28;4955782;28;20031;-84
2022/02/18 05:04:25;;;;;;;6.88;3.97;;;;;;;6.93;56.93;94800.66;4932309;29;20074;-78
2022/02/18 05:06:50;;;;;;;4.65;3.28;;;;;;;6.93;56.91;94795.50;4953484;28;20043;-82
2022/02/18 05:09:16;;;;;;;17.02;7.00;;;;;;;6.96;56.12;94814.97;4953334;29;20474;-79
2022/02/18 05:11:41;;;;;;;35.53;17.05;;;;;;;7.01;56.06;94823.69;4939938;29;20039;-81
2022/02/18 05:14:07;;;;;;;34.97;13.00;;;;;;;7.08;55.80;94834.78;4949516;29;20031;-80
2022/02/18 05:16:32;;;;;;;25.67;11.38;;;;;;;7.10;55.88;94842.31;4928086;29;20036;-80
2022/02/18 05:18:58;;;;;;;10.10;6.28;;;;;;;7.14;55.09;94841.69;4951112;29;20042;-78
2022/02/18 05:21:24;;;;;;;9.45;5.70;;;;;;;7.20;54.91;94847.81;4958502;28;20039;-81
2022/02/18 05:23:49;;;;;;;7.55;5.07;;;;;;;7.21;54.70;94855.38;4926069;29;20039;-78
2022/02/18 05:26:15;;;;;;;12.57;8.57;;;;;;;7.21;53.90;94867.50;4946765;28;20492;-79
2022/02/18 05:28:40;;;;;;;24.38;6.72;;;;;;;7.17;53.93;94864.56;4945189;29;20107;-78
2022/02/18 05:31:06;;;;;;;23.88;9.98;;;;;;;7.14;53.85;94875.28;4938121;29;20054;-78
2022/02/18 05:33:31;;;;;;;14.45;7.35;;;;;;;7.17;53.90;94859.38;4949455;28;20071;-78
2022/02/18 05:35:57;;;;;;;17.02;7.18;;;;;;;7.13;53.71;94858.19;4953004;29;20040;-78
2022/02/18 05:38:22;;;;;;;18.02;7.15;;;;;;;7.18;52.90;94868.72;4945748;29;20038;-78
2022/02/18 05:40:48;;;;;;;12.20;5.97;;;;;;;7.16;52.38;94870.72;4951961;29;20488;-79
2022/02/18 05:43:13;;;;;;;6.88;4.88;;;;;;;7.15;52.32;94881.25;4924490;29;20035;-78
2022/02/18 05:45:39;;;;;;;5.35;4.32;;;;;;;7.09;51.60;94888.06;4947586;29;20480;-78
2022/02/18 05:48:04;;;;;;;6.45;3.83;;;;;;;7.12;51.65;94882.47;4945578;29;20103;-79
2022/02/18 05:50:30;;;;;;;9.85;6.13;;;;;;;7.21;51.35;94890.78;4946498;29;20031;-78
2022/02/18 05:52:55;;;;;;;10.35;7.38;;;;;;;7.29;51.02;94892.31;4947040;29;20046;-78
2022/02/18 05:55:21;;;;;;;5.90;3.90;;;;;;;7.38;51.47;94886.69;4947055;29;20047;-78
2022/02/18 05:57:46;;;;;;;6.93;4.25;;;;;;;7.44;50.71;94895.41;4955457;28;20032;-78
2022/02/18 06:00:12;;;;;;;7.10;5.28;;;;;;;7.43;50.35;94879.09;4947675;29;20519;-78
2022/02/18 06:02:39;;;;;;;11.07;6.57;;;;;;;7.46;50.60;94885.63;4947773;29;20045;-78
2022/02/18 06:05:05;;;;;;;5.60;3.80;;;;;;;7.50;50.37;94904.94;4945999;29;20039;-78
2022/02/18 06:07:30;;;;;;;20.30;6.90;;;;;;;7.58;49.98;94911.63;4942775;29;20027;-78
2022/02/18 06:09:56;;;;;;;10.95;5.90;;;;;;;7.63;49.58;94915.16;4945798;29;20038;-78
2022/02/18 06:12:21;;;;;;;5.65;4.32;;;;;;;7.69;49.02;94927.28;4944646;29;20046;-79
2022/02/18 06:14:50;;;;;;;16.23;8.00;;;;;;;7.71;48.72;94933.03;4960984;29;20066;-78
2022/02/18 06:17:18;;;;;;;17.13;9.35;;;;;;;7.78;48.80;94936.34;4958592;29;20068;-78
2022/02/18 06:19:44;;;;;;;21.52;10.52;;;;;;;7.94;48.67;94935.03;4947072;29;20399;-78
2022/02/18 06:22:09;;;;;;;15.30;6.18;;;;;;;8.00;47.66;94936.00;4945878;29;20040;-78
2022/02/18 06:24:35;;;;;;;16.85;7.47;;;;;;;8.01;47.33;94947.94;4946747;29;20055;-78
2022/02/18 06:27:00;;;;;;;12.77;6.15;;;;;;;7.98;47.48;94938.00;4947798;28;20038;-78
2022/02/18 06:29:26;;;;;;;8.13;4.72;;;;;;;8.05;47.51;94954.28;4966078;23;20054;-78
2022/02/18 06:31:51;;;;;;;14.48;7.10;;;;;;;8.13;46.73;94941.03;4967293;28;20039;-78
2022/02/18 06:34:17;;;;;;;7.53;4.72;;;;;;;8.15;46.97;94943.44;4958331;28;20079;-79
2022/02/18 06:36:42;;;;;;;8.20;4.82;;;;;;;8.11;45.78;94949.03;4946500;29;20097;-78
2022/02/18 06:39:09;;;;;;;13.90;7.90;;;;;;;8.29;46.57;94940.50;4946980;29;20043;-78
2022/02/18 06:41:34;;;;;;;12.80;4.53;;;;;;;8.91;44.08;94928.28;4942588;29;20032;-78
2022/02/18 06:44:00;;;;;;;22.17;5.82;;;;;;;9.09;43.57;94918.91;4943040;29;20027;-78
2022/02/18 06:46:25;;;;;;;7.00;4.07;;;;;;;9.20;42.68;94920.75;4942107;29;20397;-78
2022/02/18 06:48:51;;;;;;;6.72;4.00;;;;;;;9.26;42.99;94930.25;4927186;29;20042;-79
2022/02/18 06:51:16;;;;;;;4.53;3.95;;;;;;;9.44;42.63;94935.41;4945750;29;20047;-79
2022/02/18 06:53:42;;;;;;;6.15;3.92;;;;;;;9.59;41.55;94940.94;4949886;28;20072;-79
2022/02/18 06:56:08;;;;;;;7.75;3.45;;;;;;;9.77;41.60;94947.13;4933909;29;20035;-79
2022/02/18 06:58:34;;;;;;;3.83;3.20;;;;;;;9.91;41.44;94958.84;4948515;29;20024;-79
2022/02/18 07:00:59;;;;;;;10.02;6.10;;;;;;;9.98;41.05;94956.97;4947040;29;20046;-79
2022/02/18 07:03:25;;;;;;;5.13;4.15;;;;;;;9.98;41.26;94969.97;4914765;28;20586;-79
2022/02/18 07:05:50;;;;;;;4.47;3.22;;;;;;;9.87;41.93;94968.91;4948561;28;20046;-79
2022/02/18 07:08:16;;;;;;;34.90;17.65;;;;;;;9.94;42.56;94979.22;4954007;29;20056;-80
2022/02/18 07:10:42;;;;;;;24.83;11.50;;;;;;;9.97;42.57;94968.38;4930311;29;20122;-80
2022/02/18 07:13:07;;;;;;;8.82;3.97;;;;;;;9.97;42.09;94970.19;4947494;29;20031;-79
2022/02/18 07:15:33;;;;;;;6.45;2.78;;;;;;;9.84;42.85;94956.38;4947751;28;20097;-79
2022/02/18 07:18:00;;;;;;;9.00;4.50;;;;;;;9.82;42.82;94971.41;4945891;29;20460;-79
2022/02/18 07:20:26;;;;;;;4.15;2.63;;;;;;;9.87;42.74;94962.94;4929375;29;20027;-79
2022/02/18 07:22:52;;;;;;;9.15;3.90;;;;;;;9.77;42.74;94963.50;4929976;29;20093;-79
2022/02/18 07:25:19;;;;;;;9.98;4.70;;;;;;;9.76;43.71;94964.50;4929814;29;20494;-79
2022/02/18 07:27:44;;;;;;;6.63;4.70;;;;;;;9.66;42.80;94955.66;4945158;29;20055;-79
2022/02/18 07:30:11;;;;;;;4.80;3.30;;;;;;;9.53;43.23;94947.03;4929049;29;20047;-79
2022/02/18 07:32:37;;;;;;;6.85;2.72;;;;;;;9.46;42.94;94964.53;4930082;29;20054;-80
2022/02/18 07:35:02;;;;;;;7.53;3.10;;;;;;;9.43;43.22;94951.97;4929733;29;20040;-80
2022/02/18 07:37:28;;;;;;;6.32;3.25;;;;;;;9.43;43.28;94936.38;4945068;29;20547;-79
2022/02/18 07:39:53;;;;;;;3.05;2.22;;;;;;;9.43;42.59;94933.78;4945796;29;20036;-79
2022/02/18 07:42:19;;;;;;;5.25;3.97;;;;;;;9.47;42.69;94926.38;4933059;29;20040;-78
2022/02/18 07:44:44;;;;;;;5.70;3.22;;;;;;;9.51;42.66;94919.72;4914360;29;20027;-79
2022/02/18 07:47:10;;;;;;;4.95;3.55;;;;;;;9.63;42.10;94925.75;4929852;29;20035;-79
2022/02/18 07:49:36;;;;;;;12.70;4.40;;;;;;;9.86;41.83;94946.56;4961942;28;20078;-78
2022/02/18 07:52:02;;;;;;;7.93;3.13;;;;;;;9.94;41.82;94963.63;4914074;29;20032;-79
2022/02/18 07:54:28;;;;;;;6.95;3.00;;;;;;;10.12;41.85;94963.53;4946412;28;20044;-79
2022/02/18 07:56:53;;;;;;;14.68;6.63;;;;;;;10.31;41.23;94973.84;4945864;29;20102;-78
2022/02/18 07:59:19;;;;;;;10.77;4.07;;;;;;;10.43;40.63;94977.25;4931963;29;20047;-79
2022/02/18 08:01:44;;;;;;;4.22;2.85;;;;;;;10.49;40.69;94977.13;4945977;29;20486;-78
2022/02/18 08:04:10;;;;;;;2.90;2.13;;;;;;;10.36;40.61;94968.75;4915082;29;20046;-79
2022/02/18 08:06:35;;;;;;;4.07;2.30;;;;;;;10.21;41.14;94975.19;4949878;29;20050;-78
2022/02/18 08:09:01;;;;;;;7.45;2.83;;;;;;;10.11;40.95;94948.97;4932357;29;20035;-78
2022/02/18 08:11:27;;;;;;;10.73;3.35;;;;;;;10.04;40.44;94971.66;4933134;29;20484;-78
2022/02/18 08:13:53;;;;;;;5.85;2.70;;;;;;;10.03;39.52;94977.88;4950584;28;20046;-79
2022/02/18 08:16:19;;;;;;;7.05;3.08;;;;;;;10.04;40.28;94970.84;4963739;28;20131;-78
2022/02/18 08:18:44;;;;;;;9.07;3.47;;;;;;;10.10;40.77;94983.75;4950497;28;20039;-78
2022/02/18 08:21:13;;;;;;;4.88;3.25;;;;;;;10.10;40.20;94978.56;4949526;29;20035;-79
2022/02/18 08:23:39;;;;;;;6.22;2.83;;;;;;;10.07;40.51;94973.00;4948837;29;20048;-78
2022/02/18 08:26:04;;;;;;;8.90;3.42;;;;;;;10.07;40.99;94973.00;4933956;29;20110;-78
2022/02/18 08:28:30;;;;;;;8.57;3.33;;;;;;;10.09;39.73;94958.78;4948871;29;20099;-78
2022/02/18 08:30:55;;;;;;;11.90;4.97;;;;;;;10.06;39.36;94961.81;4949555;29;20035;-78
2022/02/18 08:33:21;;;;;;;12.00;3.67;;;;;;;10.06;40.53;94964.41;4932594;29;20051;-78
2022/02/18 08:35:46;;;;;;;5.40;2.75;;;;;;;10.05;40.32;94954.25;4949698;29;20040;-79
2022/02/18 08:38:12;;;;;;;5.40;2.38;;;;;;;9.92;40.24;94973.44;4932264;29;20151;-79
2022/02/18 08:40:37;;;;;;;9.80;3.72;;;;;;;9.97;41.43;94968.38;4930716;29;20040;-79
2022/02/18 08:43:03;;;;;;;10.07;3.85;;;;;;;10.07;41.34;94968.59;4932851;29;20484;-79
2022/02/18 08:45:29;;;;;;;8.55;4.50;;;;;;;10.29;40.91;94961.09;4948652;29;20039;-79
2022/02/18 08:47:56;;;;;;;6.50;3.88;;;;;;;10.39;40.03;94950.91;4915485;29;20096;-78
2022/02/18 08:50:21;;;;;;;15.30;3.47;;;;;;;10.36;39.52;94946.16;4950112;28;20031;-79
2022/02/18 08:52:47;;;;;;;7.63;3.65;;;;;;;10.31;39.00;94955.66;4957732;28;20034;-78
2022/02/18 08:55:12;;;;;;;6.47;2.85;;;;;;;10.22;38.98;94961.19;4959751;28;20035;-78
2022/02/18 08:57:38;;;;;;;7.90;2.80;;;;;;;10.15;39.47;94970.88;4953896;29;20040;-79
2022/02/18 09:00:05;;;;;;;7.85;2.33;;;;;;;10.08;40.36;94970.19;4919577;29;20039;-78
2022/02/18 09:02:30;;;;;;;10.30;4.50;;;;;;;10.18;40.00;94974.84;4948412;29;20038;-79
2022/02/18 09:04:56;;;;;;;7.30;3.70;;;;;;;10.19;39.14;94969.41;4956130;29;20091;-78
2022/02/18 09:07:21;;;;;;;9.93;2.20;;;;;;;10.10;39.71;94975.19;4948276;29;20047;-79
2022/02/18 09:09:47;;;;;;;14.15;4.07;;;;;;;10.08;39.81;94970.19;4949195;28;20064;-79
2022/02/18 09:12:13;;;;;;;6.78;4.03;;;;;;;10.13;39.41;94979.91;4947732;29;20038;-79
2022/02/18 09:14:39;;;;;;;6.53;4.78;;;;;;;10.16;38.30;94975.06;4930929;29;20031;-79
2022/02/18 09:17:04;;;;;;;6.95;3.17;;;;;;;10.15;38.06;94977.88;4944426;28;20035;-78
2022/02/18 09:19:29;;;;;;;10.45;2.83;;;;;;;10.17;37.51;94983.66;4947674;29;20031;-78
2022/02/18 09:21:55;;;;;;;10.23;5.75;;;;;;;10.22;37.64;94981.19;4931070;29;20039;-79
2022/02/18 09:24:20;;;;;;;10.07;4.07;;;;;;;10.23;37.32;94988.75;4931052;29;20713;-79
2022/02/18 09:26:47;;;;;;;8.25;4.40;;;;;;;10.22;37.45;94986.38;4915441;29;20107;-79
2022/02/18 09:29:13;;;;;;;4.22;2.08;;;;;;;10.21;36.76;94977.78;4962209;28;20035;-78
2022/02/18 09:31:39;;;;;;;6.38;3.00;;;;;;;10.17;36.84;94971.44;4958445;23;20459;-77
2022/02/18 09:34:04;;;;;;;10.45;3.75;;;;;;;10.18;37.40;94980.81;4982881;28;20043;-78
2022/02/18 09:36:31;;;;;;;8.55;4.03;;;;;;;10.20;37.07;94968.38;4979473;28;20045;-78
2022/02/18 09:38:56;;;;;;;10.75;4.60;;;;;;;10.23;36.77;94975.75;4955818;28;20031;-79
2022/02/18 09:41:22;;;;;;;4.65;2.72;;;;;;;10.27;37.69;94965.72;4970101;28;20077;-79
2022/02/18 09:43:47;;;;;;;14.90;5.55;;;;;;;10.23;37.14;94973.16;4968555;28;20043;-78
2022/02/18 09:46:13;;;;;;;12.60;6.30;;;;;;;10.31;37.26;94979.84;4960428;28;20039;-78
2022/02/18 09:48:39;;;;;;;8.88;3.20;;;;;;;10.35;36.64;94978.38;4967965;28;20042;-78
2022/02/18 09:51:05;;;;;;;5.93;3.33;;;;;;;10.27;36.40;94978.72;4983052;28;20027;-78
2022/02/18 09:53:31;;;;;;;10.95;4.05;;;;;;;10.24;37.40;94984.34;4949990;28;20026;-78
2022/02/18 09:55:56;;;;;;;10.65;3.83;;;;;;;10.28;36.43;94974.31;4981364;28;20054;-78
2022/02/18 09:58:22;;;;;;;10.05;2.92;;;;;;;10.25;35.03;94988.56;4935702;28;20054;-79
2022/02/18 10:00:48;;;;;;;17.98;3.05;;;;;;;10.29;36.63;94994.09;4933002;28;20051;-78
2022/02/18 10:03:14;;;;;;;6.50;2.72;;;;;;;10.37;35.81;94997.13;4932860;28;20082;-78
2022/02/18 10:05:39;;;;;;;17.95;3.33;;;;;;;10.47;36.03;94988.78;4965403;28;20487;-79
2022/02/18 10:08:14;;;;;;;6.78;3.15;;;;;;;10.51;35.51;94977.69;4965643;28;20118;-79
2022/02/18 10:10:40;;;;;;;5.88;3.03;;;;;;;10.41;34.89;94954.09;4949802;28;20046;-78
2022/02/18 10:13:06;;;;;;;7.70;3.75;;;;;;;10.29;35.68;94961.09;4964502;28;20038;-78
2022/02/18 10:15:49;;;;;;;4.43;2.90;;;;;;;10.26;33.78;94950.38;4948197;28;20047;-78
2022/02/18 10:18:15;;;;;;;6.78;2.65;;;;;;;10.25;34.74;94953.94;4963662;28;20125;-79
2022/02/18 10:20:42;;;;;;;4.30;2.55;;;;;;;10.29;35.59;94949.91;4966674;28;20101;-79
2022/02/18 10:23:07;;;;;;;11.95;2.78;;;;;;;10.32;35.59;94939.06;4969487;23;20046;-78
2022/02/18 10:25:40;;;;;;;5.32;2.47;;;;;;;10.36;34.67;94940.19;4937814;29;20522;-78
2022/02/18 10:28:09;;;;;;;5.65;2.90;;;;;;;10.27;35.31;94933.75;4936779;29;20032;-78
2022/02/18 10:30:34;;;;;;;13.35;2.60;;;;;;;10.28;34.64;94886.75;4919997;29;20079;-79
2022/02/18 10:33:22;;;;;;;3.67;2.15;;;;;;;10.33;33.20;94932.84;4919664;29;20503;-78
2022/02/18 10:35:49;;;;;;;5.55;2.88;;;;;;;10.39;33.04;94924.91;4935556;29;20626;-78
2022/02/18 10:38:16;;;;;;;4.95;2.42;;;;;;;10.37;32.40;94931.34;4919624;29;20044;-78
2022/02/18 10:40:48;;;;;;;5.63;2.33;;;;;;;10.42;32.28;94931.47;4936689;29;20047;-78
2022/02/18 10:43:16;;;;;;;13.43;5.07;;;;;;;10.52;33.26;94926.47;4944580;29;20102;-79
2022/02/18 10:45:55;;;;;;;8.38;4.53;;;;;;;10.61;31.77;94924.34;4924579;29;20358;-78
2022/02/18 10:48:21;;;;;;;21.85;8.55;;;;;;;10.68;31.50;94928.38;4942636;29;20160;-78
2022/02/18 10:51:30;;;;;;;6.90;3.75;;;;;;;10.76;31.95;94935.84;4903013;29;20664;-78
2022/02/18 10:53:57;;;;;;;20.48;4.72;;;;;;;10.86;32.81;94931.84;4916222;29;20492;-79
2022/02/18 10:56:27;;;;;;;15.07;3.40;;;;;;;10.99;31.91;94908.97;4932555;29;20048;-79
2022/02/18 10:58:53;;;;;;;10.35;4.15;;;;;;;10.99;32.74;94934.19;4921466;29;20128;-79
2022/02/18 11:01:25;;;;;;;7.53;2.97;;;;;;;11.03;31.90;94936.09;4938468;29;20449;-80
2022/02/18 11:03:52;;;;;;;5.43;2.90;;;;;;;11.06;31.40;94934.84;4939861;29;20031;-79
2022/02/18 11:06:25;;;;;;;7.65;3.45;;;;;;;11.06;32.43;94934.84;4923186;29;20062;-79
2022/02/18 11:08:58;;;;;;;12.15;3.20;;;;;;;11.08;30.76;94927.63;4940203;29;20043;-79
2022/02/18 11:11:29;;;;;;;9.48;2.78;;;;;;;11.03;31.48;94924.91;4922371;29;20115;-79
2022/02/18 11:13:54;;;;;;;6.50;2.92;;;;;;;11.08;30.79;94917.22;4906999;29;20127;-79
2022/02/18 11:16:20;;;;;;;7.57;4.40;;;;;;;11.04;31.55;94926.47;4938588;29;20038;-79
2022/02/18 11:18:46;;;;;;;8.15;3.47;;;;;;;11.03;31.38;94914.50;4906318;29;20039;-79
2022/02/18 11:21:13;;;;;;;15.45;2.78;;;;;;;11.01;31.60;94932.16;4923056;29;20111;-79
2022/02/18 11:23:42;;;;;;;4.32;2.55;;;;;;;11.04;31.50;94918.66;4929356;29;20039;-79
2022/02/18 11:26:13;;;;;;;6.57;3.75;;;;;;;11.00;31.95;94920.16;4923694;29;20032;-80
2022/02/18 11:28:39;;;;;;;14.40;2.35;;;;;;;11.06;31.66;94927.03;4938282;29;20031;-79